sensor_id;sensor_type;location;lat;lon;timestamp;P1;durP1;ratioP1;P2;durP2;ratioP2
43042;SDS011;28667;50.758;6.096;2023-02-28T00:00:51;6.70;;;1.92;;
43042;SDS011;28667;50.758;6.096;2023-02-28T00:03:17;5.75;;;2.05;;
43042;SDS011;28667;50.758;6.096;2023-02-28T00:05:43;2.97;;;1.80;;
43042;SDS011;28667;50.758;6.096;2023-02-28T00:08:08;2.55;;;1.92;;
43042;SDS011;28667;50.758;6.096;2023-02-28T00:10:34;2.53;;;1.75;;
43042;SDS011;28667;50.758;6.096;2023-02-28T00:13:04;5.72;;;1.90;;
43042;SDS011;28667;50.758;6.096;2023-02-28T00:15:32;5.47;;;1.63;;
43042;SDS011;28667;50.758;6.096;2023-02-28T00:17:58;3.30;;;1.63;;
43042;SDS011;28667;50.758;6.096;2023-02-28T00:20:24;4.93;;;1.83;;
43042;SDS011;28667;50.758;6.096;2023-02-28T00:22:51;4.78;;;1.80;;
43042;SDS011;28667;50.758;6.096;2023-02-28T00:25:19;2.50;;;1.75;;
43042;SDS011;28667;50.758;6.096;2023-02-28T00:27:47;2.70;;;1.58;;
43042;SDS011;28667;50.758;6.096;2023-02-28T00:30:15;1.25;;;1.23;;
43042;SDS011;28667;50.758;6.096;2023-02-28T00:32:45;1.20;;;1.10;;
43042;SDS011;28667;50.758;6.096;2023-02-28T00:35:11;3.92;;;1.40;;
43042;SDS011;28667;50.758;6.096;2023-02-28T00:37:40;1.88;;;1.58;;
43042;SDS011;28667;50.758;6.096;2023-02-28T00:40:06;1.63;;;1.52;;
43042;SDS011;28667;50.758;6.096;2023-02-28T00:42:33;4.80;;;1.60;;
43042;SDS011;28667;50.758;6.096;2023-02-28T00:45:00;2.53;;;1.30;;
43042;SDS011;28667;50.758;6.096;2023-02-28T00:47:26;1.55;;;1.38;;
43042;SDS011;28667;50.758;6.096;2023-02-28T00:49:51;1.45;;;1.20;;
43042;SDS011;28667;50.758;6.096;2023-02-28T00:52:17;4.18;;;1.40;;
43042;SDS011;28667;50.758;6.096;2023-02-28T00:54:43;2.22;;;1.55;;
43042;SDS011;28667;50.758;6.096;2023-02-28T00:57:09;1.50;;;1.40;;
43042;SDS011;28667;50.758;6.096;2023-02-28T00:59:34;2.83;;;1.58;;
43042;SDS011;28667;50.758;6.096;2023-02-28T01:02:00;4.85;;;1.58;;
43042;SDS011;28667;50.758;6.096;2023-02-28T01:04:26;1.92;;;1.50;;
43042;SDS011;28667;50.758;6.096;2023-02-28T01:06:52;3.55;;;1.30;;
43042;SDS011;28667;50.758;6.096;2023-02-28T01:09:17;1.95;;;1.33;;
43042;SDS011;28667;50.758;6.096;2023-02-28T01:11:43;6.22;;;1.45;;
43042;SDS011;28667;50.758;6.096;2023-02-28T01:14:12;2.55;;;1.60;;
43042;SDS011;28667;50.758;6.096;2023-02-28T01:16:39;2.00;;;1.42;;
43042;SDS011;28667;50.758;6.096;2023-02-28T01:19:05;1.52;;;1.40;;
43042;SDS011;28667;50.758;6.096;2023-02-28T01:21:31;3.25;;;1.35;;
43042;SDS011;28667;50.758;6.096;2023-02-28T01:23:57;2.42;;;1.15;;
43042;SDS011;28667;50.758;6.096;2023-02-28T01:26:23;1.65;;;1.17;;
43042;SDS011;28667;50.758;6.096;2023-02-28T01:28:50;2.80;;;1.00;;
43042;SDS011;28667;50.758;6.096;2023-02-28T01:31:18;2.05;;;1.23;;
43042;SDS011;28667;50.758;6.096;2023-02-28T01:33:45;3.00;;;1.65;;
43042;SDS011;28667;50.758;6.096;2023-02-28T01:36:12;2.40;;;1.17;;
43042;SDS011;28667;50.758;6.096;2023-02-28T01:38:40;3.10;;;1.30;;
43042;SDS011;28667;50.758;6.096;2023-02-28T01:41:06;1.80;;;1.70;;
43042;SDS011;28667;50.758;6.096;2023-02-28T01:46:07;2.83;;;1.13;;
43042;SDS011;28667;50.758;6.096;2023-02-28T01:48:34;1.15;;;1.08;;
43042;SDS011;28667;50.758;6.096;2023-02-28T01:51:26;1.75;;;1.20;;
43042;SDS011;28667;50.758;6.096;2023-02-28T01:54:12;0.93;;;0.90;;
43042;SDS011;28667;50.758;6.096;2023-02-28T01:57:03;2.30;;;1.40;;
43042;SDS011;28667;50.758;6.096;2023-02-28T02:02:14;1.27;;;1.00;;
43042;SDS011;28667;50.758;6.096;2023-02-28T02:04:43;2.67;;;1.20;;
43042;SDS011;28667;50.758;6.096;2023-02-28T02:07:17;2.90;;;1.10;;
43042;SDS011;28667;50.758;6.096;2023-02-28T02:09:44;1.27;;;1.15;;
43042;SDS011;28667;50.758;6.096;2023-02-28T02:12:32;2.03;;;1.10;;
43042;SDS011;28667;50.758;6.096;2023-02-28T02:18:06;1.08;;;0.82;;
43042;SDS011;28667;50.758;6.096;2023-02-28T02:40:25;1.20;;;1.10;;
43042;SDS011;28667;50.758;6.096;2023-02-28T02:45:38;1.60;;;0.88;;
43042;SDS011;28667;50.758;6.096;2023-02-28T02:48:10;4.80;;;0.93;;
43042;SDS011;28667;50.758;6.096;2023-02-28T02:50:43;1.00;;;1.00;;
43042;SDS011;28667;50.758;6.096;2023-02-28T02:53:18;1.35;;;1.25;;
43042;SDS011;28667;50.758;6.096;2023-02-28T02:55:48;1.02;;;1.02;;
43042;SDS011;28667;50.758;6.096;2023-02-28T02:58:22;1.40;;;0.90;;
43042;SDS011;28667;50.758;6.096;2023-02-28T03:00:53;1.38;;;1.27;;
43042;SDS011;28667;50.758;6.096;2023-02-28T03:03:22;3.67;;;1.50;;
43042;SDS011;28667;50.758;6.096;2023-02-28T03:05:58;2.10;;;0.90;;
43042;SDS011;28667;50.758;6.096;2023-02-28T03:08:25;1.00;;;0.90;;
43042;SDS011;28667;50.758;6.096;2023-02-28T03:10:56;4.00;;;1.25;;
43042;SDS011;28667;50.758;6.096;2023-02-28T03:13:37;3.38;;;1.40;;
43042;SDS011;28667;50.758;6.096;2023-02-28T03:24:43;0.88;;;0.70;;
43042;SDS011;28667;50.758;6.096;2023-02-28T03:27:23;2.63;;;1.10;;
43042;SDS011;28667;50.758;6.096;2023-02-28T03:30:03;1.13;;;1.00;;
43042;SDS011;28667;50.758;6.096;2023-02-28T03:32:55;0.98;;;0.88;;
43042;SDS011;28667;50.758;6.096;2023-02-28T03:35:28;3.20;;;1.30;;
43042;SDS011;28667;50.758;6.096;2023-02-28T03:38:00;0.90;;;0.60;;
43042;SDS011;28667;50.758;6.096;2023-02-28T03:40:32;1.08;;;0.88;;
43042;SDS011;28667;50.758;6.096;2023-02-28T03:43:02;1.85;;;0.95;;
43042;SDS011;28667;50.758;6.096;2023-02-28T03:45:35;2.30;;;1.10;;
43042;SDS011;28667;50.758;6.096;2023-02-28T03:50:43;1.75;;;1.02;;
43042;SDS011;28667;50.758;6.096;2023-02-28T03:53:30;1.27;;;1.13;;
43042;SDS011;28667;50.758;6.096;2023-02-28T03:56:08;4.07;;;1.60;;
43042;SDS011;28667;50.758;6.096;2023-02-28T04:03:57;2.55;;;1.23;;
43042;SDS011;28667;50.758;6.096;2023-02-28T04:06:23;2.58;;;1.50;;
43042;SDS011;28667;50.758;6.096;2023-02-28T04:08:49;2.45;;;1.88;;
43042;SDS011;28667;50.758;6.096;2023-02-28T04:11:20;2.95;;;1.60;;
43042;SDS011;28667;50.758;6.096;2023-02-28T04:14:00;3.70;;;2.00;;
43042;SDS011;28667;50.758;6.096;2023-02-28T04:16:27;3.25;;;1.17;;
43042;SDS011;28667;50.758;6.096;2023-02-28T04:18:53;3.30;;;1.52;;
43042;SDS011;28667;50.758;6.096;2023-02-28T04:21:19;1.15;;;1.05;;
43042;SDS011;28667;50.758;6.096;2023-02-28T04:23:47;3.42;;;1.30;;
43042;SDS011;28667;50.758;6.096;2023-02-28T04:26:13;2.70;;;1.45;;
43042;SDS011;28667;50.758;6.096;2023-02-28T04:28:38;2.72;;;1.38;;
43042;SDS011;28667;50.758;6.096;2023-02-28T04:31:05;1.35;;;1.25;;
43042;SDS011;28667;50.758;6.096;2023-02-28T04:33:31;2.65;;;1.00;;
43042;SDS011;28667;50.758;6.096;2023-02-28T04:36:01;1.58;;;1.10;;
43042;SDS011;28667;50.758;6.096;2023-02-28T04:38:33;2.25;;;1.40;;
43042;SDS011;28667;50.758;6.096;2023-02-28T04:41:00;4.72;;;1.88;;
43042;SDS011;28667;50.758;6.096;2023-02-28T04:43:27;1.48;;;1.08;;
43042;SDS011;28667;50.758;6.096;2023-02-28T04:45:53;1.25;;;1.08;;
43042;SDS011;28667;50.758;6.096;2023-02-28T04:48:25;2.38;;;1.48;;
43042;SDS011;28667;50.758;6.096;2023-02-28T04:50:53;1.95;;;1.52;;
43042;SDS011;28667;50.758;6.096;2023-02-28T04:53:19;2.53;;;1.50;;
43042;SDS011;28667;50.758;6.096;2023-02-28T04:55:45;1.42;;;1.30;;
43042;SDS011;28667;50.758;6.096;2023-02-28T04:58:11;2.58;;;1.20;;
43042;SDS011;28667;50.758;6.096;2023-02-28T05:00:39;1.33;;;1.10;;
43042;SDS011;28667;50.758;6.096;2023-02-28T05:03:05;3.22;;;1.83;;
43042;SDS011;28667;50.758;6.096;2023-02-28T05:05:31;1.45;;;1.35;;
43042;SDS011;28667;50.758;6.096;2023-02-28T05:07:56;1.40;;;1.20;;
43042;SDS011;28667;50.758;6.096;2023-02-28T05:10:22;1.08;;;1.08;;
43042;SDS011;28667;50.758;6.096;2023-02-28T05:12:48;3.65;;;1.55;;
43042;SDS011;28667;50.758;6.096;2023-02-28T05:15:15;1.23;;;1.08;;
43042;SDS011;28667;50.758;6.096;2023-02-28T05:17:41;1.65;;;1.25;;
43042;SDS011;28667;50.758;6.096;2023-02-28T05:20:08;1.38;;;1.27;;
43042;SDS011;28667;50.758;6.096;2023-02-28T05:22:36;2.25;;;1.48;;
43042;SDS011;28667;50.758;6.096;2023-02-28T05:25:02;2.78;;;1.50;;
43042;SDS011;28667;50.758;6.096;2023-02-28T05:27:32;2.58;;;1.27;;
43042;SDS011;28667;50.758;6.096;2023-02-28T05:29:58;1.38;;;1.10;;
43042;SDS011;28667;50.758;6.096;2023-02-28T05:32:24;1.10;;;0.95;;
43042;SDS011;28667;50.758;6.096;2023-02-28T05:34:50;1.65;;;0.95;;
43042;SDS011;28667;50.758;6.096;2023-02-28T05:37:15;1.92;;;1.05;;
43042;SDS011;28667;50.758;6.096;2023-02-28T05:39:42;2.35;;;1.35;;
43042;SDS011;28667;50.758;6.096;2023-02-28T05:42:08;0.68;;;0.68;;
43042;SDS011;28667;50.758;6.096;2023-02-28T05:44:35;0.98;;;0.93;;
43042;SDS011;28667;50.758;6.096;2023-02-28T05:47:01;1.33;;;1.15;;
43042;SDS011;28667;50.758;6.096;2023-02-28T05:49:27;1.80;;;0.80;;
43042;SDS011;28667;50.758;6.096;2023-02-28T05:51:53;2.47;;;1.65;;
43042;SDS011;28667;50.758;6.096;2023-02-28T05:54:19;2.78;;;1.20;;
43042;SDS011;28667;50.758;6.096;2023-02-28T05:56:45;1.02;;;1.00;;
43042;SDS011;28667;50.758;6.096;2023-02-28T05:59:13;5.20;;;0.90;;
43042;SDS011;28667;50.758;6.096;2023-02-28T06:01:42;2.58;;;1.25;;
43042;SDS011;28667;50.758;6.096;2023-02-28T06:04:13;1.70;;;1.38;;
43042;SDS011;28667;50.758;6.096;2023-02-28T06:06:51;1.25;;;0.75;;
43042;SDS011;28667;50.758;6.096;2023-02-28T06:09:17;6.60;;;1.23;;
43042;SDS011;28667;50.758;6.096;2023-02-28T06:11:44;1.60;;;1.08;;
43042;SDS011;28667;50.758;6.096;2023-02-28T06:14:19;1.08;;;0.80;;
43042;SDS011;28667;50.758;6.096;2023-02-28T06:16:45;2.25;;;1.50;;
43042;SDS011;28667;50.758;6.096;2023-02-28T06:19:12;1.85;;;1.17;;
43042;SDS011;28667;50.758;6.096;2023-02-28T06:21:38;2.25;;;1.42;;
43042;SDS011;28667;50.758;6.096;2023-02-28T06:24:04;2.30;;;1.73;;
43042;SDS011;28667;50.758;6.096;2023-02-28T06:26:30;3.78;;;1.15;;
43042;SDS011;28667;50.758;6.096;2023-02-28T06:28:56;3.33;;;1.30;;
43042;SDS011;28667;50.758;6.096;2023-02-28T06:31:22;3.72;;;1.10;;
43042;SDS011;28667;50.758;6.096;2023-02-28T06:33:49;4.32;;;1.27;;
43042;SDS011;28667;50.758;6.096;2023-02-28T06:36:16;1.55;;;1.08;;
43042;SDS011;28667;50.758;6.096;2023-02-28T06:38:42;2.90;;;1.50;;
43042;SDS011;28667;50.758;6.096;2023-02-28T06:41:09;1.35;;;1.10;;
43042;SDS011;28667;50.758;6.096;2023-02-28T06:43:36;1.85;;;1.70;;
43042;SDS011;28667;50.758;6.096;2023-02-28T06:46:05;1.30;;;1.00;;
43042;SDS011;28667;50.758;6.096;2023-02-28T06:48:33;1.98;;;1.40;;
43042;SDS011;28667;50.758;6.096;2023-02-28T06:51:06;4.25;;;2.00;;
43042;SDS011;28667;50.758;6.096;2023-02-28T06:53:34;1.48;;;1.30;;
43042;SDS011;28667;50.758;6.096;2023-02-28T06:56:03;4.63;;;1.55;;
43042;SDS011;28667;50.758;6.096;2023-02-28T06:58:32;1.63;;;1.30;;
43042;SDS011;28667;50.758;6.096;2023-02-28T07:00:59;5.45;;;1.75;;
43042;SDS011;28667;50.758;6.096;2023-02-28T07:03:26;1.65;;;1.42;;
43042;SDS011;28667;50.758;6.096;2023-02-28T07:05:52;1.17;;;0.88;;
43042;SDS011;28667;50.758;6.096;2023-02-28T07:08:18;2.92;;;1.60;;
43042;SDS011;28667;50.758;6.096;2023-02-28T07:10:44;1.92;;;1.63;;
43042;SDS011;28667;50.758;6.096;2023-02-28T07:13:10;3.00;;;1.50;;
43042;SDS011;28667;50.758;6.096;2023-02-28T07:15:36;2.53;;;1.35;;
43042;SDS011;28667;50.758;6.096;2023-02-28T07:18:02;2.25;;;1.00;;
43042;SDS011;28667;50.758;6.096;2023-02-28T07:20:29;2.83;;;1.30;;
43042;SDS011;28667;50.758;6.096;2023-02-28T07:22:55;2.42;;;1.67;;
43042;SDS011;28667;50.758;6.096;2023-02-28T07:25:25;1.83;;;1.42;;
43042;SDS011;28667;50.758;6.096;2023-02-28T07:27:53;2.03;;;1.02;;
43042;SDS011;28667;50.758;6.096;2023-02-28T07:30:19;4.90;;;2.00;;
43042;SDS011;28667;50.758;6.096;2023-02-28T07:32:45;3.45;;;1.65;;
43042;SDS011;28667;50.758;6.096;2023-02-28T07:35:12;2.63;;;1.45;;
43042;SDS011;28667;50.758;6.096;2023-02-28T07:37:40;2.85;;;1.90;;
43042;SDS011;28667;50.758;6.096;2023-02-28T07:40:07;3.00;;;1.70;;
43042;SDS011;28667;50.758;6.096;2023-02-28T07:42:35;4.90;;;2.22;;
43042;SDS011;28667;50.758;6.096;2023-02-28T07:45:03;1.95;;;1.38;;
43042;SDS011;28667;50.758;6.096;2023-02-28T07:47:29;4.05;;;2.10;;
43042;SDS011;28667;50.758;6.096;2023-02-28T07:49:56;5.50;;;2.55;;
43042;SDS011;28667;50.758;6.096;2023-02-28T07:52:22;5.30;;;2.05;;
43042;SDS011;28667;50.758;6.096;2023-02-28T07:54:49;3.03;;;2.03;;
43042;SDS011;28667;50.758;6.096;2023-02-28T07:57:15;4.45;;;1.98;;
43042;SDS011;28667;50.758;6.096;2023-02-28T07:59:41;4.60;;;2.00;;
43042;SDS011;28667;50.758;6.096;2023-02-28T08:02:12;1.67;;;1.23;;
43042;SDS011;28667;50.758;6.096;2023-02-28T08:04:40;3.13;;;1.65;;
43042;SDS011;28667;50.758;6.096;2023-02-28T08:07:05;1.98;;;1.45;;
43042;SDS011;28667;50.758;6.096;2023-02-28T08:09:32;3.92;;;2.35;;
43042;SDS011;28667;50.758;6.096;2023-02-28T08:11:57;3.25;;;2.38;;
43042;SDS011;28667;50.758;6.096;2023-02-28T08:14:23;3.40;;;1.90;;
43042;SDS011;28667;50.758;6.096;2023-02-28T08:16:49;2.83;;;1.58;;
43042;SDS011;28667;50.758;6.096;2023-02-28T08:19:15;9.00;;;2.42;;
43042;SDS011;28667;50.758;6.096;2023-02-28T08:21:40;2.20;;;1.98;;
43042;SDS011;28667;50.758;6.096;2023-02-28T08:24:06;2.42;;;1.65;;
43042;SDS011;28667;50.758;6.096;2023-02-28T08:26:32;3.10;;;1.77;;
43042;SDS011;28667;50.758;6.096;2023-02-28T08:28:58;3.47;;;1.67;;
43042;SDS011;28667;50.758;6.096;2023-02-28T08:31:24;2.50;;;1.75;;
43042;SDS011;28667;50.758;6.096;2023-02-28T08:33:50;5.88;;;2.15;;
43042;SDS011;28667;50.758;6.096;2023-02-28T08:36:17;1.80;;;1.65;;
43042;SDS011;28667;50.758;6.096;2023-02-28T08:38:45;4.70;;;1.98;;
43042;SDS011;28667;50.758;6.096;2023-02-28T08:41:11;2.03;;;1.50;;
43042;SDS011;28667;50.758;6.096;2023-02-28T08:43:38;4.88;;;2.30;;
43042;SDS011;28667;50.758;6.096;2023-02-28T08:46:04;2.70;;;1.73;;
43042;SDS011;28667;50.758;6.096;2023-02-28T08:48:32;3.30;;;1.88;;
43042;SDS011;28667;50.758;6.096;2023-02-28T08:51:00;2.17;;;1.60;;
43042;SDS011;28667;50.758;6.096;2023-02-28T08:53:28;2.38;;;1.92;;
43042;SDS011;28667;50.758;6.096;2023-02-28T08:55:55;1.83;;;1.63;;
43042;SDS011;28667;50.758;6.096;2023-02-28T08:58:22;4.95;;;1.60;;
43042;SDS011;28667;50.758;6.096;2023-02-28T09:00:48;1.50;;;1.40;;
43042;SDS011;28667;50.758;6.096;2023-02-28T09:03:15;2.67;;;1.52;;
43042;SDS011;28667;50.758;6.096;2023-02-28T09:05:40;1.95;;;1.48;;
43042;SDS011;28667;50.758;6.096;2023-02-28T09:08:06;2.17;;;1.52;;
43042;SDS011;28667;50.758;6.096;2023-02-28T09:10:32;3.50;;;1.35;;
43042;SDS011;28667;50.758;6.096;2023-02-28T09:12:57;1.77;;;1.38;;
43042;SDS011;28667;50.758;6.096;2023-02-28T09:15:23;4.57;;;1.73;;
43042;SDS011;28667;50.758;6.096;2023-02-28T09:17:49;2.63;;;1.80;;
43042;SDS011;28667;50.758;6.096;2023-02-28T09:20:15;2.00;;;1.55;;
43042;SDS011;28667;50.758;6.096;2023-02-28T09:22:40;2.15;;;1.48;;
43042;SDS011;28667;50.758;6.096;2023-02-28T09:25:06;1.70;;;1.60;;
43042;SDS011;28667;50.758;6.096;2023-02-28T09:27:32;2.75;;;1.35;;
43042;SDS011;28667;50.758;6.096;2023-02-28T09:29:58;3.35;;;1.42;;
43042;SDS011;28667;50.758;6.096;2023-02-28T09:32:23;1.80;;;1.70;;
43042;SDS011;28667;50.758;6.096;2023-02-28T09:34:49;1.05;;;1.05;;
43042;SDS011;28667;50.758;6.096;2023-02-28T09:37:15;1.30;;;0.90;;
43042;SDS011;28667;50.758;6.096;2023-02-28T09:39:41;1.95;;;1.20;;
43042;SDS011;28667;50.758;6.096;2023-02-28T09:42:11;3.05;;;1.58;;
43042;SDS011;28667;50.758;6.096;2023-02-28T09:44:44;1.15;;;1.10;;
43042;SDS011;28667;50.758;6.096;2023-02-28T09:49:44;0.70;;;0.70;;
43042;SDS011;28667;50.758;6.096;2023-02-28T09:52:23;4.28;;;0.70;;
43042;SDS011;28667;50.758;6.096;2023-02-28T09:54:53;0.60;;;0.60;;
43042;SDS011;28667;50.758;6.096;2023-02-28T09:57:32;1.15;;;0.70;;
43042;SDS011;28667;50.758;6.096;2023-02-28T10:00:14;0.80;;;0.77;;
43042;SDS011;28667;50.758;6.096;2023-02-28T10:05:19;0.70;;;0.70;;
43042;SDS011;28667;50.758;6.096;2023-02-28T10:07:59;0.90;;;0.90;;
43042;SDS011;28667;50.758;6.096;2023-02-28T10:16:01;0.80;;;0.68;;
43042;SDS011;28667;50.758;6.096;2023-02-28T10:18:52;1.70;;;0.80;;
43042;SDS011;28667;50.758;6.096;2023-02-28T10:21:36;2.25;;;0.82;;
43042;SDS011;28667;50.758;6.096;2023-02-28T10:27:37;1.42;;;0.93;;
43042;SDS011;28667;50.758;6.096;2023-02-28T10:29:58;1.65;;;0.80;;
43042;SDS011;28667;50.758;6.096;2023-02-28T10:32:29;0.88;;;0.77;;
43042;SDS011;28667;50.758;6.096;2023-02-28T10:37:40;1.50;;;0.70;;
43042;SDS011;28667;50.758;6.096;2023-02-28T10:40:30;0.68;;;0.68;;
43042;SDS011;28667;50.758;6.096;2023-02-28T10:45:30;2.13;;;0.70;;
43042;SDS011;28667;50.758;6.096;2023-02-28T10:47:59;1.10;;;0.70;;
43042;SDS011;28667;50.758;6.096;2023-02-28T10:53:13;1.10;;;1.00;;
43042;SDS011;28667;50.758;6.096;2023-02-28T10:58:57;1.08;;;0.57;;
43042;SDS011;28667;50.758;6.096;2023-02-28T11:01:45;3.22;;;1.02;;
43042;SDS011;28667;50.758;6.096;2023-02-28T11:04:18;0.88;;;0.88;;
43042;SDS011;28667;50.758;6.096;2023-02-28T11:06:47;0.80;;;0.80;;
43042;SDS011;28667;50.758;6.096;2023-02-28T11:12:04;1.40;;;1.10;;
43042;SDS011;28667;50.758;6.096;2023-02-28T11:14:46;1.30;;;1.10;;
43042;SDS011;28667;50.758;6.096;2023-02-28T11:17:18;1.42;;;0.98;;
43042;SDS011;28667;50.758;6.096;2023-02-28T11:19:47;0.88;;;0.88;;
43042;SDS011;28667;50.758;6.096;2023-02-28T11:22:18;2.17;;;1.00;;
43042;SDS011;28667;50.758;6.096;2023-02-28T11:24:47;0.82;;;0.82;;
43042;SDS011;28667;50.758;6.096;2023-02-28T11:29:59;1.35;;;1.17;;
43042;SDS011;28667;50.758;6.096;2023-02-28T11:32:29;1.55;;;1.10;;
43042;SDS011;28667;50.758;6.096;2023-02-28T11:35:00;5.05;;;1.17;;
43042;SDS011;28667;50.758;6.096;2023-02-28T11:37:28;1.65;;;1.40;;
43042;SDS011;28667;50.758;6.096;2023-02-28T11:39:56;1.23;;;1.00;;
43042;SDS011;28667;50.758;6.096;2023-02-28T11:42:35;2.15;;;1.13;;
43042;SDS011;28667;50.758;6.096;2023-02-28T11:45:18;0.77;;;0.70;;
43042;SDS011;28667;50.758;6.096;2023-02-28T11:53:11;2.65;;;1.20;;
43042;SDS011;28667;50.758;6.096;2023-02-28T11:55:58;3.17;;;1.58;;
43042;SDS011;28667;50.758;6.096;2023-02-28T12:07:03;1.70;;;1.40;;
43042;SDS011;28667;50.758;6.096;2023-02-28T12:12:21;1.45;;;1.35;;
43042;SDS011;28667;50.758;6.096;2023-02-28T12:20:22;1.75;;;1.40;;
43042;SDS011;28667;50.758;6.096;2023-02-28T12:22:53;1.42;;;0.85;;
43042;SDS011;28667;50.758;6.096;2023-02-28T12:28:10;1.95;;;1.40;;
43042;SDS011;28667;50.758;6.096;2023-02-28T12:33:34;2.40;;;1.10;;
43042;SDS011;28667;50.758;6.096;2023-02-28T12:36:08;0.88;;;0.88;;
43042;SDS011;28667;50.758;6.096;2023-02-28T12:38:44;3.40;;;1.48;;
43042;SDS011;28667;50.758;6.096;2023-02-28T12:41:18;1.42;;;1.10;;
43042;SDS011;28667;50.758;6.096;2023-02-28T12:43:52;1.05;;;0.90;;
43042;SDS011;28667;50.758;6.096;2023-02-28T12:46:46;4.53;;;1.60;;
43042;SDS011;28667;50.758;6.096;2023-02-28T12:51:52;1.85;;;0.95;;
43042;SDS011;28667;50.758;6.096;2023-02-28T12:54:25;1.17;;;1.08;;
43042;SDS011;28667;50.758;6.096;2023-02-28T12:57:02;2.08;;;1.42;;
43042;SDS011;28667;50.758;6.096;2023-02-28T13:07:53;2.40;;;1.60;;
43042;SDS011;28667;50.758;6.096;2023-02-28T13:10:23;3.53;;;1.70;;
43042;SDS011;28667;50.758;6.096;2023-02-28T13:12:50;1.65;;;1.20;;
43042;SDS011;28667;50.758;6.096;2023-02-28T13:15:24;4.53;;;1.73;;
43042;SDS011;28667;50.758;6.096;2023-02-28T13:17:54;1.60;;;1.25;;
43042;SDS011;28667;50.758;6.096;2023-02-28T13:20:34;1.45;;;1.35;;
43042;SDS011;28667;50.758;6.096;2023-02-28T13:23:02;1.77;;;1.20;;
43042;SDS011;28667;50.758;6.096;2023-02-28T13:27:59;1.40;;;1.30;;
43042;SDS011;28667;50.758;6.096;2023-02-28T13:33:29;3.10;;;1.50;;
43042;SDS011;28667;50.758;6.096;2023-02-28T13:51:48;1.83;;;1.42;;
43042;SDS011;28667;50.758;6.096;2023-02-28T13:54:39;3.65;;;1.58;;
43042;SDS011;28667;50.758;6.096;2023-02-28T13:57:40;3.17;;;1.83;;
43042;SDS011;28667;50.758;6.096;2023-02-28T14:05:37;2.42;;;1.52;;
43042;SDS011;28667;50.758;6.096;2023-02-28T14:08:18;2.22;;;1.42;;
43042;SDS011;28667;50.758;6.096;2023-02-28T14:10:47;1.65;;;1.25;;
43042;SDS011;28667;50.758;6.096;2023-02-28T14:16:11;2.05;;;1.50;;
43042;SDS011;28667;50.758;6.096;2023-02-28T14:19:28;1.50;;;1.40;;
43042;SDS011;28667;50.758;6.096;2023-02-28T14:33:12;1.50;;;1.23;;
43042;SDS011;28667;50.758;6.096;2023-02-28T14:36:42;3.08;;;1.58;;
43042;SDS011;28667;50.758;6.096;2023-02-28T14:38:55;2.28;;;1.45;;
43042;SDS011;28667;50.758;6.096;2023-02-28T14:43:59;1.55;;;1.45;;
43042;SDS011;28667;50.758;6.096;2023-02-28T14:46:26;5.18;;;1.45;;
43042;SDS011;28667;50.758;6.096;2023-02-28T14:49:01;1.80;;;1.60;;
43042;SDS011;28667;50.758;6.096;2023-02-28T14:51:30;2.78;;;1.50;;
43042;SDS011;28667;50.758;6.096;2023-02-28T14:53:57;2.17;;;1.48;;
43042;SDS011;28667;50.758;6.096;2023-02-28T14:56:36;1.27;;;1.13;;
43042;SDS011;28667;50.758;6.096;2023-02-28T14:59:04;1.80;;;1.42;;
43042;SDS011;28667;50.758;6.096;2023-02-28T15:01:30;1.60;;;1.50;;
43042;SDS011;28667;50.758;6.096;2023-02-28T15:04:03;2.05;;;1.60;;
43042;SDS011;28667;50.758;6.096;2023-02-28T15:06:31;2.05;;;1.85;;
43042;SDS011;28667;50.758;6.096;2023-02-28T15:09:17;2.00;;;1.45;;
43042;SDS011;28667;50.758;6.096;2023-02-28T15:11:50;4.57;;;1.92;;
43042;SDS011;28667;50.758;6.096;2023-02-28T15:14:20;3.03;;;1.60;;
43042;SDS011;28667;50.758;6.096;2023-02-28T15:16:55;3.28;;;2.05;;
43042;SDS011;28667;50.758;6.096;2023-02-28T15:19:43;1.88;;;1.48;;
43042;SDS011;28667;50.758;6.096;2023-02-28T15:22:16;1.30;;;1.15;;
43042;SDS011;28667;50.758;6.096;2023-02-28T15:24:48;2.65;;;1.45;;
43042;SDS011;28667;50.758;6.096;2023-02-28T15:29:51;2.25;;;1.27;;
43042;SDS011;28667;50.758;6.096;2023-02-28T15:32:32;3.42;;;1.70;;
43042;SDS011;28667;50.758;6.096;2023-02-28T15:35:02;3.50;;;2.03;;
43042;SDS011;28667;50.758;6.096;2023-02-28T15:45:50;2.83;;;1.80;;
43042;SDS011;28667;50.758;6.096;2023-02-28T15:48:19;2.25;;;2.00;;
43042;SDS011;28667;50.758;6.096;2023-02-28T15:50:54;1.55;;;1.45;;
43042;SDS011;28667;50.758;6.096;2023-02-28T15:53:23;2.33;;;1.73;;
43042;SDS011;28667;50.758;6.096;2023-02-28T15:56:26;5.10;;;2.00;;
43042;SDS011;28667;50.758;6.096;2023-02-28T15:58:59;2.72;;;2.08;;
43042;SDS011;28667;50.758;6.096;2023-02-28T16:01:33;3.50;;;1.88;;
43042;SDS011;28667;50.758;6.096;2023-02-28T16:04:01;2.17;;;1.67;;
43042;SDS011;28667;50.758;6.096;2023-02-28T16:09:18;2.60;;;2.17;;
43042;SDS011;28667;50.758;6.096;2023-02-28T16:11:47;3.10;;;2.03;;
43042;SDS011;28667;50.758;6.096;2023-02-28T16:14:19;2.45;;;2.25;;
43042;SDS011;28667;50.758;6.096;2023-02-28T16:16:52;2.13;;;1.50;;
43042;SDS011;28667;50.758;6.096;2023-02-28T16:19:22;3.40;;;1.52;;
43042;SDS011;28667;50.758;6.096;2023-02-28T16:21:48;1.92;;;1.42;;
43042;SDS011;28667;50.758;6.096;2023-02-28T16:24:14;4.75;;;2.08;;
43042;SDS011;28667;50.758;6.096;2023-02-28T16:26:40;6.03;;;2.83;;
43042;SDS011;28667;50.758;6.096;2023-02-28T16:29:13;1.52;;;1.40;;
43042;SDS011;28667;50.758;6.096;2023-02-28T16:31:44;2.30;;;2.00;;
43042;SDS011;28667;50.758;6.096;2023-02-28T16:34:10;4.68;;;1.58;;
43042;SDS011;28667;50.758;6.096;2023-02-28T16:36:35;2.55;;;2.05;;
43042;SDS011;28667;50.758;6.096;2023-02-28T16:39:01;3.00;;;2.33;;
43042;SDS011;28667;50.758;6.096;2023-02-28T16:41:27;2.80;;;2.03;;
43042;SDS011;28667;50.758;6.096;2023-02-28T16:43:54;5.50;;;3.03;;
43042;SDS011;28667;50.758;6.096;2023-02-28T16:46:27;4.05;;;2.38;;
43042;SDS011;28667;50.758;6.096;2023-02-28T16:48:59;4.00;;;2.78;;
43042;SDS011;28667;50.758;6.096;2023-02-28T16:51:25;3.30;;;2.05;;
43042;SDS011;28667;50.758;6.096;2023-02-28T16:53:51;5.88;;;2.33;;
43042;SDS011;28667;50.758;6.096;2023-02-28T16:56:18;3.03;;;2.20;;
43042;SDS011;28667;50.758;6.096;2023-02-28T16:58:45;6.05;;;2.10;;
43042;SDS011;28667;50.758;6.096;2023-02-28T17:01:12;2.17;;;1.75;;
43042;SDS011;28667;50.758;6.096;2023-02-28T17:03:38;6.30;;;3.40;;
43042;SDS011;28667;50.758;6.096;2023-02-28T17:06:12;9.23;;;6.50;;
43042;SDS011;28667;50.758;6.096;2023-02-28T17:08:43;4.28;;;3.50;;
43042;SDS011;28667;50.758;6.096;2023-02-28T17:11:08;6.90;;;2.85;;
43042;SDS011;28667;50.758;6.096;2023-02-28T17:13:34;2.60;;;2.25;;
43042;SDS011;28667;50.758;6.096;2023-02-28T17:16:00;2.42;;;2.20;;
43042;SDS011;28667;50.758;6.096;2023-02-28T17:18:26;2.25;;;2.05;;
43042;SDS011;28667;50.758;6.096;2023-02-28T17:20:58;2.55;;;1.67;;
43042;SDS011;28667;50.758;6.096;2023-02-28T17:23:25;3.00;;;1.60;;
43042;SDS011;28667;50.758;6.096;2023-02-28T17:25:51;3.97;;;1.52;;
43042;SDS011;28667;50.758;6.096;2023-02-28T17:28:20;3.63;;;2.13;;
43042;SDS011;28667;50.758;6.096;2023-02-28T17:30:47;2.33;;;2.08;;
43042;SDS011;28667;50.758;6.096;2023-02-28T17:33:14;3.72;;;1.88;;
43042;SDS011;28667;50.758;6.096;2023-02-28T17:35:40;2.28;;;1.70;;
43042;SDS011;28667;50.758;6.096;2023-02-28T17:38:12;4.32;;;1.63;;
43042;SDS011;28667;50.758;6.096;2023-02-28T17:40:44;2.17;;;1.65;;
43042;SDS011;28667;50.758;6.096;2023-02-28T17:43:10;3.35;;;2.45;;
43042;SDS011;28667;50.758;6.096;2023-02-28T17:45:35;5.82;;;3.90;;
43042;SDS011;28667;50.758;6.096;2023-02-28T17:48:02;4.28;;;3.00;;
43042;SDS011;28667;50.758;6.096;2023-02-28T17:50:27;5.25;;;2.63;;
43042;SDS011;28667;50.758;6.096;2023-02-28T17:52:53;5.63;;;1.95;;
43042;SDS011;28667;50.758;6.096;2023-02-28T17:55:19;4.15;;;2.15;;
43042;SDS011;28667;50.758;6.096;2023-02-28T17:57:45;4.10;;;2.75;;